Time;durP1;ratioP1;P1;durP2;ratioP2;P2;SDS_P1;SDS_P2;PMS_P1;PMS_P2;Temp;Humidity;BMP_temperature;BMP_pressure;BME280_temperature;BME280_humidity;BME280_pressure;Samples;Min_cycle;Max_cycle;Signal;HPM_P1;HPM_P2
2021/03/03 00:02:19;;;;;;;22.50;11.80;;;;;;;;;;5056175;28;20385;-73
2021/03/03 00:04:45;;;;;;;21.42;11.30;;;;;;;;;;5056349;28;20390;-72
2021/03/03 00:07:11;;;;;;;17.90;11.23;;;;;;;;;;5055781;28;20130;-72
2021/03/03 00:09:37;;;;;;;19.85;11.90;;;;;;;;;;5055878;28;20403;-72
2021/03/03 00:12:04;;;;;;;25.85;11.40;;;;;;;;;;5055768;28;20504;-72
2021/03/03 00:14:30;;;;;;;21.27;11.20;;;;;;;;;;5055599;28;20025;-71
2021/03/03 00:16:56;;;;;;;19.95;11.25;;;;;;;;;;5055496;28;20025;-72
2021/03/03 00:19:22;;;;;;;21.83;11.70;;;;;;;;;;5054442;28;20025;-72
2021/03/03 00:21:48;;;;;;;22.33;11.88;;;;;;;;;;5055600;28;20028;-72
2021/03/03 00:24:14;;;;;;;18.08;11.07;;;;;;;;;;5055641;28;20029;-72
2021/03/03 00:26:41;;;;;;;19.52;11.48;;;;;;;;;;5055447;28;20025;-71
2021/03/03 00:29:07;;;;;;;20.17;12.27;;;;;;;;;;5055467;28;20021;-71
2021/03/03 00:31:33;;;;;;;19.67;11.40;;;;;;;;;;5054156;28;20108;-71
2021/03/03 00:33:59;;;;;;;24.95;11.38;;;;;;;;;;5055304;28;20029;-71
2021/03/03 00:36:25;;;;;;;19.30;11.70;;;;;;;;;;5055057;28;20044;-71
2021/03/03 00:38:51;;;;;;;20.08;11.38;;;;;;;;;;5055313;28;20036;-71
2021/03/03 00:41:17;;;;;;;25.08;13.63;;;;;;;;;;5055412;28;20043;-71
2021/03/03 00:43:44;;;;;;;30.15;15.98;;;;;;;;;;5055147;28;20025;-72
2021/03/03 00:46:11;;;;;;;30.90;15.45;;;;;;;;;;5055096;28;20374;-71
2021/03/03 00:48:37;;;;;;;21.17;12.25;;;;;;;;;;5054869;28;20025;-71
2021/03/03 00:51:04;;;;;;;25.73;13.60;;;;;;;;;;5055058;28;20085;-72
2021/03/03 00:53:30;;;;;;;27.40;15.55;;;;;;;;;;5053648;28;20025;-71
2021/03/03 00:55:56;;;;;;;27.48;15.63;;;;;;;;;;5054904;28;20033;-71
2021/03/03 00:58:22;;;;;;;30.02;16.77;;;;;;;;;;5054663;28;20048;-71
2021/03/03 01:00:48;;;;;;;29.35;17.70;;;;;;;;;;5054814;28;20028;-71
2021/03/03 01:03:14;;;;;;;32.72;16.67;;;;;;;;;;5055044;28;20144;-71
2021/03/03 01:05:44;;;;;;;35.22;17.92;;;;;;;;;;5054812;28;20027;-71
2021/03/03 01:08:10;;;;;;;35.42;17.65;;;;;;;;;;5054887;28;20381;-71
2021/03/03 01:10:37;;;;;;;29.20;17.08;;;;;;;;;;5054632;28;20543;-72
2021/03/03 01:13:03;;;;;;;34.30;18.23;;;;;;;;;;5054573;28;20070;-72
2021/03/03 01:15:30;;;;;;;30.55;17.50;;;;;;;;;;5054833;28;20065;-72
2021/03/03 01:18:00;;;;;;;34.88;18.20;;;;;;;;;;5054672;28;20078;-72
2021/03/03 01:20:30;;;;;;;31.23;18.17;;;;;;;;;;5054724;28;20052;-72
2021/03/03 01:22:56;;;;;;;32.33;17.60;;;;;;;;;;5054624;28;20400;-71
2021/03/03 01:25:23;;;;;;;29.27;16.92;;;;;;;;;;5054330;28;20033;-72
2021/03/03 01:27:49;;;;;;;37.33;23.58;;;;;;;;;;5054252;28;20053;-72
2021/03/03 01:30:15;;;;;;;27.60;17.38;;;;;;;;;;5054308;28;20029;-71
2021/03/03 01:32:41;;;;;;;33.58;17.20;;;;;;;;;;5054146;28;20029;-71
2021/03/03 01:35:08;;;;;;;36.80;19.80;;;;;;;;;;5054158;28;20049;-72
2021/03/03 01:37:34;;;;;;;35.22;18.23;;;;;;;;;;5054149;28;20021;-71
2021/03/03 01:40:00;;;;;;;32.28;18.98;;;;;;;;;;5054129;28;20021;-71
2021/03/03 01:42:26;;;;;;;32.05;18.30;;;;;;;;;;5053972;28;20113;-71
2021/03/03 01:44:52;;;;;;;28.98;16.92;;;;;;;;;;5053963;28;20057;-72
2021/03/03 01:47:19;;;;;;;26.30;13.95;;;;;;;;;;5053970;28;20087;-71
2021/03/03 01:49:45;;;;;;;20.73;11.88;;;;;;;;;;5053779;28;20021;-72
2021/03/03 01:52:11;;;;;;;23.92;12.45;;;;;;;;;;5053886;28;20081;-71
2021/03/03 01:54:37;;;;;;;23.08;12.65;;;;;;;;;;5052339;28;20516;-71
2021/03/03 01:57:04;;;;;;;21.05;12.80;;;;;;;;;;5054009;28;20029;-71
2021/03/03 01:59:30;;;;;;;22.75;12.88;;;;;;;;;;5053962;28;20105;-71
2021/03/03 02:01:56;;;;;;;20.23;12.70;;;;;;;;;;5053720;28;20536;-72
2021/03/03 02:04:22;;;;;;;26.60;13.43;;;;;;;;;;5053337;28;20060;-71
2021/03/03 02:06:51;;;;;;;23.00;13.20;;;;;;;;;;5053561;28;20098;-71
2021/03/03 02:09:24;;;;;;;28.92;12.68;;;;;;;;;;5053544;28;20032;-71
2021/03/03 02:12:09;;;;;;;20.40;12.60;;;;;;;;;;5053524;28;20029;-71
2021/03/03 02:14:36;;;;;;;20.35;11.77;;;;;;;;;;5052090;28;20044;-71
2021/03/03 02:17:03;;;;;;;24.60;13.50;;;;;;;;;;5053728;28;20119;-71
2021/03/03 02:19:30;;;;;;;24.33;13.35;;;;;;;;;;5053587;28;20021;-71
2021/03/03 02:22:03;;;;;;;24.63;14.50;;;;;;;;;;5053306;28;20124;-71
2021/03/03 02:24:32;;;;;;;24.75;14.20;;;;;;;;;;5053521;28;20025;-71
2021/03/03 02:26:58;;;;;;;23.63;13.63;;;;;;;;;;5053640;28;20036;-71
2021/03/03 02:29:29;;;;;;;22.38;12.77;;;;;;;;;;5053290;28;20028;-71
2021/03/03 02:31:56;;;;;;;25.50;14.05;;;;;;;;;;5053584;28;20413;-71
2021/03/03 02:34:26;;;;;;;19.77;12.43;;;;;;;;;;5053115;28;20049;-71
2021/03/03 02:36:52;;;;;;;20.42;11.43;;;;;;;;;;5053717;28;20088;-71
2021/03/03 02:39:21;;;;;;;22.20;11.65;;;;;;;;;;5053512;28;20024;-71
2021/03/03 02:41:48;;;;;;;21.95;12.27;;;;;;;;;;5053208;28;20100;-72
2021/03/03 02:44:14;;;;;;;20.85;12.05;;;;;;;;;;5053172;28;20028;-72
2021/03/03 02:46:44;;;;;;;19.83;11.73;;;;;;;;;;5053221;28;20017;-71
2021/03/03 02:49:10;;;;;;;22.08;12.57;;;;;;;;;;5053060;28;20021;-71
2021/03/03 02:51:37;;;;;;;24.52;12.55;;;;;;;;;;5053125;28;20017;-71
2021/03/03 02:54:03;;;;;;;19.48;12.02;;;;;;;;;;5053050;28;20021;-71
2021/03/03 02:56:29;;;;;;;20.48;11.50;;;;;;;;;;5053063;28;20033;-71
2021/03/03 02:58:57;;;;;;;25.77;14.23;;;;;;;;;;5053038;28;20054;-71
2021/03/03 03:01:26;;;;;;;24.73;13.70;;;;;;;;;;5053052;28;20051;-71
2021/03/03 03:03:54;;;;;;;26.10;13.95;;;;;;;;;;5051756;28;20025;-71
2021/03/03 03:06:24;;;;;;;22.15;12.05;;;;;;;;;;5053042;28;20470;-71
2021/03/03 03:08:53;;;;;;;25.88;12.45;;;;;;;;;;5052965;28;20516;-71
2021/03/03 03:11:25;;;;;;;24.10;13.52;;;;;;;;;;5052965;28;20094;-71
2021/03/03 03:13:50;;;;;;;;;;;;;;;;;;5053636;28;20024;-71
2021/03/03 03:16:17;;;;;;;36.20;13.80;;;;;;;;;;5052856;28;19913;-71
2021/03/03 03:18:46;;;;;;;22.40;13.18;;;;;;;;;;5056453;28;20521;-72
2021/03/03 03:21:14;;;;;;;24.42;14.38;;;;;;;;;;5056718;28;20037;-72
2021/03/03 03:23:41;;;;;;;26.27;14.68;;;;;;;;;;5056771;28;20381;-71
2021/03/03 03:26:07;;;;;;;27.80;14.57;;;;;;;;;;5056660;28;20079;-71
2021/03/03 03:28:40;;;;;;;23.38;13.52;;;;;;;;;;5056860;28;20021;-72
2021/03/03 03:31:07;;;;;;;27.08;14.38;;;;;;;;;;5056647;28;20112;-73
2021/03/03 03:33:33;;;;;;;25.67;14.20;;;;;;;;;;5056877;28;20121;-72
2021/03/03 03:36:00;;;;;;;19.27;12.32;;;;;;;;;;5056187;28;20045;-73
2021/03/03 03:38:34;;;;;;;26.95;12.88;;;;;;;;;;5056358;28;20466;-72
2021/03/03 03:41:01;;;;;;;24.65;12.95;;;;;;;;;;5056586;28;20470;-72
2021/03/03 03:43:28;;;;;;;21.15;12.68;;;;;;;;;;5056640;28;20074;-72
2021/03/03 03:45:54;;;;;;;19.58;11.70;;;;;;;;;;5056172;28;20025;-72
2021/03/03 03:48:21;;;;;;;21.05;12.63;;;;;;;;;;5056187;28;20123;-72
2021/03/03 03:50:47;;;;;;;19.73;11.25;;;;;;;;;;5056130;28;20029;-72
2021/03/03 03:53:13;;;;;;;26.95;12.07;;;;;;;;;;5054842;28;20025;-72
2021/03/03 03:55:40;;;;;;;19.80;10.98;;;;;;;;;;5055935;28;20041;-72
2021/03/03 03:58:06;;;;;;;22.55;10.30;;;;;;;;;;5055988;28;20473;-73
2021/03/03 04:00:33;;;;;;;20.23;11.70;;;;;;;;;;5055767;28;20465;-73
2021/03/03 04:03:00;;;;;;;25.30;13.40;;;;;;;;;;5055857;28;20021;-72
2021/03/03 04:05:26;;;;;;;21.50;10.80;;;;;;;;;;5056116;28;20028;-72
2021/03/03 04:07:53;;;;;;;20.80;11.73;;;;;;;;;;5055913;28;20021;-73
2021/03/03 04:10:21;;;;;;;25.55;12.95;;;;;;;;;;5056040;28;20029;-72
2021/03/03 04:12:47;;;;;;;27.48;14.68;;;;;;;;;;5055788;28;20095;-73
2021/03/03 04:15:13;;;;;;;22.98;13.10;;;;;;;;;;5055735;28;20061;-72
2021/03/03 04:17:40;;;;;;;23.20;12.85;;;;;;;;;;5055833;28;20087;-72
2021/03/03 04:20:07;;;;;;;24.33;12.38;;;;;;;;;;5055918;28;20441;-73
2021/03/03 04:22:34;;;;;;;21.48;12.98;;;;;;;;;;5055833;28;20465;-73
2021/03/03 04:25:00;;;;;;;27.67;13.82;;;;;;;;;;5055507;28;20025;-73
2021/03/03 04:27:27;;;;;;;20.40;11.55;;;;;;;;;;5055366;28;20066;-72
2021/03/03 04:29:53;;;;;;;25.65;10.88;;;;;;;;;;5055352;28;20025;-72
2021/03/03 04:32:19;;;;;;;20.40;11.75;;;;;;;;;;5055458;28;20477;-72
2021/03/03 04:34:45;;;;;;;26.20;12.68;;;;;;;;;;5055095;28;20068;-72
2021/03/03 04:37:11;;;;;;;19.65;12.15;;;;;;;;;;5055350;28;20067;-72
2021/03/03 04:39:37;;;;;;;26.65;13.32;;;;;;;;;;5055508;28;20021;-72
2021/03/03 04:42:04;;;;;;;21.10;12.75;;;;;;;;;;5055247;28;20109;-72
2021/03/03 04:44:30;;;;;;;20.75;12.25;;;;;;;;;;5055173;28;20075;-72
2021/03/03 04:46:57;;;;;;;23.55;12.93;;;;;;;;;;5055249;28;20067;-72
2021/03/03 04:49:23;;;;;;;22.08;11.88;;;;;;;;;;5055041;28;20100;-72
2021/03/03 04:51:49;;;;;;;21.05;12.32;;;;;;;;;;5054852;28;20079;-72
2021/03/03 04:54:15;;;;;;;22.10;10.68;;;;;;;;;;5055136;28;20029;-72
2021/03/03 04:56:41;;;;;;;19.80;12.00;;;;;;;;;;5054815;28;20039;-72
2021/03/03 04:59:07;;;;;;;18.90;11.65;;;;;;;;;;5054846;28;20025;-72
2021/03/03 05:01:33;;;;;;;19.95;10.95;;;;;;;;;;5055089;28;20025;-72
2021/03/03 05:04:00;;;;;;;21.35;11.95;;;;;;;;;;5054762;28;20017;-72
2021/03/03 05:06:26;;;;;;;20.00;12.43;;;;;;;;;;5054734;28;20032;-72
2021/03/03 05:08:53;;;;;;;24.85;13.38;;;;;;;;;;5054991;28;20405;-72
2021/03/03 05:11:19;;;;;;;26.63;13.27;;;;;;;;;;5053358;28;20021;-71
2021/03/03 05:13:45;;;;;;;23.02;13.48;;;;;;;;;;5054559;28;20033;-71
2021/03/03 05:16:11;;;;;;;24.40;12.85;;;;;;;;;;5053191;28;20120;-71
2021/03/03 05:18:37;;;;;;;25.20;13.32;;;;;;;;;;5054584;28;20401;-71
2021/03/03 05:21:04;;;;;;;23.35;13.25;;;;;;;;;;5054481;28;20025;-71
2021/03/03 05:23:30;;;;;;;24.98;13.82;;;;;;;;;;5053146;28;20017;-71
2021/03/03 05:25:57;;;;;;;24.42;12.75;;;;;;;;;;5054324;28;20025;-72
2021/03/03 05:28:23;;;;;;;24.77;11.75;;;;;;;;;;5054139;28;20036;-71
2021/03/03 05:30:49;;;;;;;22.50;12.32;;;;;;;;;;5054354;28;20055;-71
2021/03/03 05:33:25;;;;;;;29.88;12.85;;;;;;;;;;5054196;28;20025;-71
2021/03/03 05:35:51;;;;;;;21.80;11.85;;;;;;;;;;5053898;28;20056;-71
2021/03/03 05:38:18;;;;;;;22.65;12.40;;;;;;;;;;5054023;28;20025;-71
2021/03/03 05:40:47;;;;;;;35.40;14.27;;;;;;;;;;5053280;28;20091;-71
2021/03/03 05:43:14;;;;;;;23.23;13.15;;;;;;;;;;5054257;28;20017;-71
2021/03/03 05:45:44;;;;;;;24.20;12.68;;;;;;;;;;5053899;28;20550;-72
2021/03/03 05:48:15;;;;;;;31.85;13.73;;;;;;;;;;5054130;28;20032;-71
2021/03/03 05:50:43;;;;;;;25.05;13.20;;;;;;;;;;5053772;28;20033;-71
2021/03/03 05:53:09;;;;;;;25.60;12.65;;;;;;;;;;5054100;28;20059;-71
2021/03/03 05:55:35;;;;;;;26.83;12.75;;;;;;;;;;5054014;28;20041;-71
2021/03/03 05:58:02;;;;;;;24.92;12.93;;;;;;;;;;5053753;28;20592;-71
2021/03/03 06:00:30;;;;;;;26.88;13.20;;;;;;;;;;5053721;28;20158;-71
2021/03/03 06:02:57;;;;;;;24.67;13.88;;;;;;;;;;5053532;28;20552;-72
2021/03/03 06:05:23;;;;;;;50.95;29.00;;;;;;;;;;5053708;28;20032;-71
2021/03/03 06:07:50;;;;;;;33.30;17.95;;;;;;;;;;5053545;28;20366;-71
2021/03/03 06:10:16;;;;;;;36.97;15.35;;;;;;;;;;5053568;28;20075;-72
2021/03/03 06:12:42;;;;;;;26.50;14.23;;;;;;;;;;5053423;28;20039;-71
2021/03/03 06:15:09;;;;;;;28.00;13.63;;;;;;;;;;5053438;28;20435;-71
2021/03/03 06:17:36;;;;;;;24.05;12.40;;;;;;;;;;5053516;28;20543;-71
2021/03/03 06:20:03;;;;;;;28.92;13.68;;;;;;;;;;5053768;28;20052;-72
2021/03/03 06:22:29;;;;;;;31.48;13.68;;;;;;;;;;5053406;28;20477;-72
2021/03/03 06:24:59;;;;;;;28.00;14.10;;;;;;;;;;5053391;28;20481;-71
2021/03/03 06:27:25;;;;;;;27.73;12.90;;;;;;;;;;5053301;28;20024;-72
2021/03/03 06:30:04;;;;;;;24.60;14.15;;;;;;;;;;5053365;28;20029;-72
2021/03/03 06:32:30;;;;;;;27.35;12.60;;;;;;;;;;5051962;28;20025;-72
2021/03/03 06:34:56;;;;;;;27.55;14.10;;;;;;;;;;5052997;28;20044;-73
2021/03/03 06:37:22;;;;;;;23.00;13.20;;;;;;;;;;5053060;28;20024;-73
2021/03/03 06:40:06;;;;;;;34.38;18.95;;;;;;;;;;5053393;28;20025;-72
2021/03/03 06:42:32;;;;;;;30.83;13.27;;;;;;;;;;5053049;28;20033;-73
2021/03/03 06:44:58;;;;;;;23.75;12.05;;;;;;;;;;5053152;28;20025;-71
2021/03/03 06:47:25;;;;;;;28.17;12.55;;;;;;;;;;5053315;28;20052;-73
2021/03/03 06:49:52;;;;;;;24.23;11.93;;;;;;;;;;5052871;28;20053;-75
2021/03/03 06:52:18;;;;;;;31.90;13.40;;;;;;;;;;5055745;28;20462;-73
2021/03/03 06:54:45;;;;;;;23.45;13.20;;;;;;;;;;5056663;28;20032;-73
2021/03/03 06:57:14;;;;;;;22.65;12.40;;;;;;;;;;5057024;28;20108;-70
2021/03/03 06:59:44;;;;;;;23.63;12.40;;;;;;;;;;5056849;28;20017;-71
2021/03/03 07:02:14;;;;;;;23.08;12.60;;;;;;;;;;5057039;28;20025;-71
2021/03/03 07:04:41;;;;;;;31.38;12.93;;;;;;;;;;5057129;28;20025;-71
2021/03/03 07:07:10;;;;;;;38.72;13.77;;;;;;;;;;5057360;28;20032;-73
2021/03/03 07:09:38;;;;;;;40.10;14.38;;;;;;;;;;5057019;28;20021;-72
2021/03/03 07:12:06;;;;;;;24.98;12.80;;;;;;;;;;5057285;28;20053;-71
2021/03/03 07:14:32;;;;;;;27.35;16.63;;;;;;;;;;5056716;28;20036;-64
2021/03/03 07:17:15;;;;;;;72.93;32.58;;;;;;;;;;5057020;28;20033;-72
2021/03/03 07:19:52;;;;;;;46.83;21.67;;;;;;;;;;5056673;28;20029;-72
2021/03/03 07:22:23;;;;;;;29.38;13.93;;;;;;;;;;5056925;28;20028;-71
2021/03/03 07:24:53;;;;;;;23.50;11.27;;;;;;;;;;5056473;28;20021;-72
2021/03/03 07:27:20;;;;;;;25.08;11.20;;;;;;;;;;5056625;28;20195;-71
2021/03/03 07:29:48;;;;;;;19.55;9.10;;;;;;;;;;5071885;28;20107;-71
2021/03/03 07:32:15;;;;;;;29.90;11.02;;;;;;;;;;5070497;28;20055;-72
2021/03/03 07:34:41;;;;;;;114.97;15.57;;;;;;;;;;5076480;28;20045;-71
2021/03/03 07:37:08;;;;;;;27.77;11.70;;;;;;;;;;5085997;28;20062;-71
2021/03/03 07:39:39;;;;;;;27.90;12.65;;;;;;;;;;5074862;28;20068;-71
2021/03/03 07:42:10;;;;;;;30.43;11.50;;;;;;;;;;5086267;28;20031;-72
2021/03/03 07:44:38;;;;;;;26.17;10.02;;;;;;;;;;5081068;28;20455;-72
2021/03/03 07:47:04;;;;;;;23.98;9.82;;;;;;;;;;5079985;28;20016;-72
2021/03/03 07:49:33;;;;;;;23.50;10.23;;;;;;;;;;5080284;28;20036;-72
2021/03/03 07:51:59;;;;;;;26.35;9.95;;;;;;;;;;5075885;28;20119;-73
2021/03/03 07:54:26;;;;;;;22.02;10.35;;;;;;;;;;5076077;28;20025;-74
2021/03/03 07:56:52;;;;;;;26.17;10.32;;;;;;;;;;5075908;28;20511;-73
2021/03/03 07:59:18;;;;;;;20.17;10.70;;;;;;;;;;5074417;28;20420;-73
2021/03/03 08:01:50;;;;;;;20.40;9.90;;;;;;;;;;5076011;28;20029;-73
2021/03/03 08:04:34;;;;;;;22.45;10.63;;;;;;;;;;5074952;28;20023;-73
2021/03/03 08:07:19;;;;;;;26.92;11.38;;;;;;;;;;5083973;28;20111;-72
2021/03/03 08:10:21;;;;;;;23.15;9.80;;;;;;;;;;5095938;28;20016;-72
2021/03/03 08:12:56;;;;;;;22.50;10.33;;;;;;;;;;5094049;28;20123;-75
2021/03/03 08:15:41;;;;;;;21.75;9.98;;;;;;;;;;5095202;28;20039;-73
2021/03/03 08:18:27;;;;;;;22.85;8.85;;;;;;;;;;5095796;28;20560;-72
2021/03/03 08:20:53;;;;;;;19.40;9.35;;;;;;;;;;5095598;28;20032;-74
2021/03/03 08:23:34;;;;;;;21.90;8.80;;;;;;;;;;5095448;28;20422;-73
2021/03/03 08:26:07;;;;;;;18.13;8.75;;;;;;;;;;5095525;28;20102;-72
2021/03/03 08:28:34;;;;;;;22.15;8.77;;;;;;;;;;5095536;28;20046;-71
2021/03/03 08:31:10;;;;;;;16.00;7.68;;;;;;;;;;5095570;28;20486;-72
2021/03/03 08:33:42;;;;;;;14.23;7.63;;;;;;;;;;5095421;28;20027;-72
2021/03/03 08:36:29;;;;;;;14.55;7.35;;;;;;;;;;5095290;28;20522;-72
2021/03/03 08:38:55;;;;;;;14.50;7.97;;;;;;;;;;5095161;28;20026;-71
2021/03/03 08:41:30;;;;;;;16.00;7.95;;;;;;;;;;5095533;28;20093;-72
2021/03/03 08:44:00;;;;;;;21.13;8.95;;;;;;;;;;5095194;28;20024;-72
2021/03/03 08:46:26;;;;;;;21.17;8.07;;;;;;;;;;5095102;28;20103;-72
2021/03/03 08:48:58;;;;;;;19.10;7.80;;;;;;;;;;5088750;28;20028;-71
2021/03/03 08:51:31;;;;;;;20.10;8.35;;;;;;;;;;5057179;28;20024;-72
2021/03/03 08:54:02;;;;;;;20.50;8.55;;;;;;;;;;5053355;28;20036;-73
2021/03/03 08:56:37;;;;;;;29.83;12.90;;;;;;;;;;5052797;28;20056;-72
2021/03/03 08:59:04;;;;;;;18.13;8.27;;;;;;;;;;5052807;28;20112;-72
2021/03/03 09:01:50;;;;;;;39.45;18.13;;;;;;;;;;5059072;28;20099;-72
2021/03/03 09:04:17;;;;;;;29.80;14.25;;;;;;;;;;5080503;28;20032;-71
2021/03/03 09:06:48;;;;;;;38.15;16.70;;;;;;;;;;5070792;28;20027;-72
2021/03/03 09:09:14;;;;;;;51.00;21.42;;;;;;;;;;5069183;28;20037;-71
2021/03/03 09:11:40;;;;;;;50.15;21.35;;;;;;;;;;5072563;28;20024;-72
2021/03/03 09:14:06;;;;;;;44.13;12.32;;;;;;;;;;5072155;28;20032;-71
2021/03/03 09:16:33;;;;;;;16.85;8.65;;;;;;;;;;5072451;28;20040;-73
2021/03/03 09:19:17;;;;;;;23.58;7.75;;;;;;;;;;5072365;28;20025;-71
2021/03/03 09:21:44;;;;;;;22.92;8.60;;;;;;;;;;5062660;28;20025;-72
2021/03/03 09:24:11;;;;;;;28.27;8.90;;;;;;;;;;5062300;28;20025;-75
2021/03/03 09:26:37;;;;;;;15.27;7.63;;;;;;;;;;5061640;28;20082;-74
2021/03/03 09:29:04;;;;;;;24.73;9.20;;;;;;;;;;5060426;28;20339;-73
2021/03/03 09:31:31;;;;;;;19.13;9.48;;;;;;;;;;5061745;28;20021;-73
2021/03/03 09:33:58;;;;;;;20.02;9.00;;;;;;;;;;5064641;28;20033;-75
2021/03/03 09:36:24;;;;;;;21.23;8.77;;;;;;;;;;5072113;28;20052;-76
2021/03/03 09:38:57;;;;;;;15.70;8.57;;;;;;;;;;5072277;28;20050;-75
2021/03/03 09:41:24;;;;;;;37.92;10.43;;;;;;;;;;5075096;28;20499;-74
2021/03/03 09:43:59;;;;;;;14.80;9.02;;;;;;;;;;5092576;28;20024;-75
2021/03/03 09:46:25;;;;;;;16.52;8.65;;;;;;;;;;5082149;28;20519;-75
2021/03/03 09:48:51;;;;;;;19.13;8.48;;;;;;;;;;5077841;28;20031;-75
2021/03/03 09:51:18;;;;;;;20.40;9.77;;;;;;;;;;5088069;28;20473;-74
2021/03/03 09:53:54;;;;;;;20.10;8.88;;;;;;;;;;5072956;28;20021;-75
2021/03/03 09:56:30;;;;;;;21.42;8.68;;;;;;;;;;5071704;28;20093;-74
2021/03/03 09:58:57;;;;;;;21.27;9.35;;;;;;;;;;5071962;28;20453;-75
2021/03/03 10:01:24;;;;;;;17.27;8.15;;;;;;;;;;5072129;28;20039;-74
2021/03/03 10:03:50;;;;;;;14.73;8.20;;;;;;;;;;5071894;28;20036;-75
2021/03/03 10:06:18;;;;;;;14.85;8.50;;;;;;;;;;5071915;28;20100;-75
2021/03/03 10:08:44;;;;;;;20.90;7.63;;;;;;;;;;5071978;28;20025;-73
2021/03/03 10:11:10;;;;;;;23.13;8.38;;;;;;;;;;5086364;28;20519;-74
2021/03/03 10:13:40;;;;;;;17.30;8.35;;;;;;;;;;5092445;28;20045;-72
2021/03/03 10:16:19;;;;;;;15.65;6.80;;;;;;;;;;5091795;28;20032;-72
2021/03/03 10:19:04;;;;;;;15.23;7.60;;;;;;;;;;5092378;28;20027;-72
2021/03/03 10:21:30;;;;;;;11.98;7.30;;;;;;;;;;5092287;28;20024;-72
2021/03/03 10:23:57;;;;;;;14.18;7.93;;;;;;;;;;5088122;28;20024;-72
2021/03/03 10:26:24;;;;;;;13.95;8.05;;;;;;;;;;5087103;28;20035;-72
2021/03/03 10:28:53;;;;;;;20.27;11.45;;;;;;;;;;5072008;28;20169;-72
2021/03/03 10:31:20;;;;;;;17.15;7.80;;;;;;;;;;5071940;28;20408;-72
2021/03/03 10:33:49;;;;;;;26.80;8.85;;;;;;;;;;5084514;28;20035;-73
2021/03/03 10:36:21;;;;;;;14.15;8.20;;;;;;;;;;5081224;28;20048;-73
2021/03/03 10:38:55;;;;;;;15.63;9.00;;;;;;;;;;5092638;28;20048;-72
2021/03/03 10:41:21;;;;;;;32.10;12.68;;;;;;;;;;5091781;28;20032;-71
2021/03/03 10:43:48;;;;;;;16.75;9.00;;;;;;;;;;5091904;28;20473;-72
2021/03/03 10:46:18;;;;;;;16.60;8.57;;;;;;;;;;5092925;28;20021;-73
2021/03/03 10:48:45;;;;;;;30.98;8.95;;;;;;;;;;5093520;28;20024;-72
2021/03/03 10:51:12;;;;;;;15.43;8.85;;;;;;;;;;5077137;28;20107;-71
2021/03/03 10:53:55;;;;;;;17.65;9.13;;;;;;;;;;5084228;28;20103;-72
2021/03/03 10:56:24;;;;;;;18.70;9.20;;;;;;;;;;5093384;28;20043;-72
2021/03/03 10:58:50;;;;;;;18.35;9.88;;;;;;;;;;5083692;28;20553;-72
2021/03/03 11:01:18;;;;;;;16.70;9.30;;;;;;;;;;5078711;28;20047;-72
2021/03/03 11:03:50;;;;;;;18.02;9.30;;;;;;;;;;5073232;28;20029;-72
2021/03/03 11:06:16;;;;;;;15.48;9.77;;;;;;;;;;5075813;28;20119;-72
2021/03/03 11:08:43;;;;;;;19.13;10.43;;;;;;;;;;5089407;22;20053;-62
2021/03/03 11:11:09;;;;;;;18.20;9.73;;;;;;;;;;5072775;28;20024;-62
2021/03/03 11:13:35;;;;;;;19.92;9.77;;;;;;;;;;5072295;28;20028;-63
2021/03/03 11:16:02;;;;;;;16.88;9.85;;;;;;;;;;5072501;28;20036;-63
2021/03/03 11:18:28;;;;;;;20.30;10.32;;;;;;;;;;5072221;28;20122;-63
2021/03/03 11:20:55;;;;;;;19.70;10.07;;;;;;;;;;5072820;28;20131;-63
2021/03/03 11:23:21;;;;;;;16.48;10.30;;;;;;;;;;5072725;28;20032;-63
2021/03/03 11:25:47;;;;;;;21.10;10.50;;;;;;;;;;5072729;28;20457;-63
2021/03/03 11:28:14;;;;;;;18.73;10.23;;;;;;;;;;5072553;28;20025;-63
2021/03/03 11:30:40;;;;;;;20.55;11.52;;;;;;;;;;5072551;28;20086;-63
2021/03/03 11:33:06;;;;;;;24.20;11.48;;;;;;;;;;5072470;28;20461;-63
2021/03/03 11:35:32;;;;;;;24.20;11.25;;;;;;;;;;5072414;28;20076;-63
2021/03/03 11:37:58;;;;;;;20.02;11.23;;;;;;;;;;5072972;28;20036;-63
2021/03/03 11:40:24;;;;;;;28.50;11.93;;;;;;;;;;5076457;28;20453;-63
2021/03/03 11:42:51;;;;;;;22.17;11.40;;;;;;;;;;5076138;28;20431;-63
2021/03/03 11:45:17;;;;;;;22.27;11.98;;;;;;;;;;5076228;28;20020;-63
2021/03/03 11:47:44;;;;;;;24.23;12.00;;;;;;;;;;5074748;28;20029;-63
2021/03/03 11:50:10;;;;;;;24.88;11.70;;;;;;;;;;5076007;28;20473;-62
2021/03/03 11:52:37;;;;;;;23.90;12.48;;;;;;;;;;5075771;28;20039;-63
2021/03/03 11:55:03;;;;;;;24.17;11.82;;;;;;;;;;5076255;28;20103;-63
2021/03/03 11:57:30;;;;;;;19.08;11.40;;;;;;;;;;5075801;28;20043;-63
2021/03/03 11:59:56;;;;;;;21.17;11.13;;;;;;;;;;5075850;28;20039;-63
2021/03/03 12:02:22;;;;;;;21.52;11.18;;;;;;;;;;5075683;28;20017;-63
2021/03/03 12:04:48;;;;;;;22.98;12.98;;;;;;;;;;5075772;28;20040;-63
2021/03/03 12:07:14;;;;;;;17.95;10.45;;;;;;;;;;5075418;28;20028;-63
2021/03/03 12:09:41;;;;;;;24.02;11.95;;;;;;;;;;5075655;28;20369;-63
2021/03/03 12:12:07;;;;;;;27.45;11.38;;;;;;;;;;5075925;28;20437;-63
2021/03/03 12:14:33;;;;;;;21.55;11.77;;;;;;;;;;5075582;28;20060;-63
2021/03/03 12:17:00;;;;;;;19.13;11.45;;;;;;;;;;5075379;28;20040;-63
2021/03/03 12:19:26;;;;;;;23.48;11.48;;;;;;;;;;5075718;28;20469;-63
2021/03/03 12:21:52;;;;;;;24.70;12.02;;;;;;;;;;5075479;28;20503;-63
2021/03/03 12:24:18;;;;;;;21.77;12.93;;;;;;;;;;5075359;28;20103;-63
2021/03/03 12:26:44;;;;;;;24.75;12.82;;;;;;;;;;5075291;28;20566;-63
2021/03/03 12:29:11;;;;;;;20.70;12.85;;;;;;;;;;5075557;28;20064;-63
2021/03/03 12:31:37;;;;;;;23.55;12.98;;;;;;;;;;5075425;28;20104;-63
2021/03/03 12:34:03;;;;;;;25.50;12.60;;;;;;;;;;5075432;28;20052;-63
2021/03/03 12:36:29;;;;;;;21.38;11.60;;;;;;;;;;5075060;28;20089;-63
2021/03/03 12:38:55;;;;;;;22.10;12.35;;;;;;;;;;5074994;28;20031;-63
2021/03/03 12:41:21;;;;;;;21.70;12.25;;;;;;;;;;5075093;28;20025;-63
2021/03/03 12:43:47;;;;;;;22.55;12.15;;;;;;;;;;5074982;28;20027;-63
2021/03/03 12:46:14;;;;;;;25.15;12.38;;;;;;;;;;5058714;28;20106;-62
2021/03/03 12:48:40;;;;;;;23.23;11.40;;;;;;;;;;5051480;28;20033;-63
2021/03/03 12:51:06;;;;;;;21.45;11.18;;;;;;;;;;5053333;28;20108;-63
2021/03/03 12:53:32;;;;;;;20.95;12.10;;;;;;;;;;5051847;28;20033;-63
2021/03/03 12:55:58;;;;;;;19.15;11.75;;;;;;;;;;5052593;28;20497;-62
2021/03/03 12:58:24;;;;;;;25.40;13.63;;;;;;;;;;5053064;28;20537;-62
2021/03/03 13:00:51;;;;;;;26.23;12.50;;;;;;;;;;5053082;28;20112;-63
2021/03/03 13:03:17;;;;;;;28.38;14.20;;;;;;;;;;5053020;28;20025;-62
2021/03/03 13:05:44;;;;;;;25.90;15.07;;;;;;;;;;5052687;28;20529;-63
2021/03/03 13:08:10;;;;;;;22.17;11.93;;;;;;;;;;5049499;28;20045;-62
2021/03/03 13:10:36;;;;;;;19.20;11.77;;;;;;;;;;5052316;28;20485;-63
2021/03/03 13:13:02;;;;;;;26.92;12.35;;;;;;;;;;5052777;28;20025;-63
2021/03/03 13:15:28;;;;;;;21.88;11.77;;;;;;;;;;5052308;28;20111;-63
2021/03/03 13:17:57;;;;;;;27.63;12.95;;;;;;;;;;5052527;28;20029;-63
2021/03/03 13:20:24;;;;;;;17.70;11.48;;;;;;;;;;5052853;28;20381;-63
2021/03/03 13:22:50;;;;;;;21.60;11.75;;;;;;;;;;5052442;28;20440;-62
2021/03/03 13:25:16;;;;;;;23.55;12.18;;;;;;;;;;5052168;28;20120;-63
2021/03/03 13:27:42;;;;;;;32.35;13.68;;;;;;;;;;5052834;28;20070;-63
2021/03/03 13:30:12;;;;;;;21.98;12.82;;;;;;;;;;5052596;28;20054;-64
2021/03/03 13:32:38;;;;;;;20.85;11.13;;;;;;;;;;5052182;28;20074;-63
2021/03/03 13:35:05;;;;;;;22.67;12.52;;;;;;;;;;5052308;28;20179;-63
2021/03/03 13:37:32;;;;;;;23.45;12.38;;;;;;;;;;5052652;28;20033;-63
2021/03/03 13:39:58;;;;;;;21.48;11.77;;;;;;;;;;5052202;28;20036;-63
2021/03/03 13:42:24;;;;;;;25.95;12.77;;;;;;;;;;5052205;28;20033;-64
2021/03/03 13:44:50;;;;;;;21.13;12.10;;;;;;;;;;5051867;28;20031;-64
2021/03/03 13:47:16;;;;;;;24.63;12.05;;;;;;;;;;5052394;28;20419;-62
2021/03/03 13:49:42;;;;;;;27.52;13.18;;;;;;;;;;5050121;28;20083;-63
2021/03/03 13:52:09;;;;;;;21.83;11.98;;;;;;;;;;5052263;28;20040;-63
2021/03/03 13:54:35;;;;;;;29.42;12.80;;;;;;;;;;5064751;28;20047;-62
2021/03/03 13:57:01;;;;;;;21.40;12.80;;;;;;;;;;5071403;28;20036;-62
2021/03/03 13:59:28;;;;;;;24.15;12.57;;;;;;;;;;5071945;28;20032;-63
2021/03/03 14:01:54;;;;;;;29.02;14.48;;;;;;;;;;5071599;28;20040;-63
2021/03/03 14:04:20;;;;;;;26.33;13.43;;;;;;;;;;5071674;28;20021;-63
2021/03/03 14:06:46;;;;;;;26.13;13.77;;;;;;;;;;5071619;28;20024;-63
2021/03/03 14:09:12;;;;;;;28.83;14.80;;;;;;;;;;5070703;28;20084;-64
2021/03/03 14:11:39;;;;;;;28.45;15.63;;;;;;;;;;5063889;28;20465;-63
2021/03/03 14:14:05;;;;;;;33.83;15.77;;;;;;;;;;5051771;28;20454;-64
2021/03/03 14:16:31;;;;;;;27.00;16.83;;;;;;;;;;5051389;28;20389;-63
2021/03/03 14:18:57;;;;;;;28.90;17.02;;;;;;;;;;5066140;28;20028;-63
2021/03/03 14:21:23;;;;;;;30.30;16.02;;;;;;;;;;5068166;28;20051;-63
2021/03/03 14:23:49;;;;;;;31.65;16.38;;;;;;;;;;5059368;28;20056;-63